createdAt,value
2023-02-09T00:02:18.332Z,66.60
2023-02-09T00:04:53.805Z,66.60
2023-02-09T00:07:25.994Z,66.50
2023-02-09T00:13:41.403Z,66.50
2023-02-09T00:16:13.908Z,66.60
2023-02-09T00:18:46.923Z,66.60
2023-02-09T00:21:16.377Z,66.60
2023-02-09T00:23:48.537Z,66.70
2023-02-09T00:26:34.060Z,66.70
2023-02-09T00:29:05.181Z,66.70
2023-02-09T00:31:35.790Z,66.70
2023-02-09T00:34:09.781Z,66.80
2023-02-09T00:36:38.930Z,66.80
2023-02-09T00:39:10.207Z,66.80
2023-02-09T00:41:55.894Z,66.90
2023-02-09T00:44:30.796Z,67.00
2023-02-09T00:46:59.720Z,67.00
2023-02-09T00:49:35.365Z,67.20
2023-02-09T00:52:06.016Z,67.30
2023-02-09T00:54:34.284Z,67.30
2023-02-09T00:57:05.561Z,67.40
2023-02-09T00:59:36.140Z,67.30
2023-02-09T01:02:05.004Z,67.30
2023-02-09T01:04:59.194Z,67.30
2023-02-09T01:07:34.136Z,67.40
2023-02-09T01:10:04.137Z,67.50
2023-02-09T01:12:36.835Z,67.50
2023-02-09T01:15:08.748Z,67.60
2023-02-09T01:17:40.250Z,67.60
2023-02-09T01:20:12.191Z,67.70
2023-02-09T01:22:41.762Z,67.60
2023-02-09T01:25:13.742Z,67.70
2023-02-09T01:27:42.991Z,67.80
2023-02-09T01:30:12.984Z,67.80
2023-02-09T01:32:42.477Z,67.80
2023-02-09T01:35:12.591Z,68.00
2023-02-09T01:37:40.891Z,68.00
2023-02-09T01:40:10.781Z,67.90
2023-02-09T01:42:40.390Z,67.80
2023-02-09T01:45:23.935Z,67.80
2023-02-09T01:47:57.881Z,68.00
2023-02-09T01:50:29.887Z,68.10
2023-02-09T01:52:58.860Z,68.10
2023-02-09T01:55:35.753Z,67.90
2023-02-09T01:58:11.671Z,67.90
2023-02-09T02:00:40.005Z,67.90
2023-02-09T02:03:14.038Z,68.10
2023-02-09T02:05:50.022Z,68.20
2023-02-09T02:08:28.573Z,68.10
2023-02-09T02:10:59.212Z,68.10
2023-02-09T02:13:30.570Z,68.00
2023-02-09T02:16:06.268Z,68.00
2023-02-09T02:18:57.182Z,68.00
2023-02-09T02:21:58.740Z,68.00
2023-02-09T02:25:00.432Z,67.80
2023-02-09T02:27:34.135Z,67.60
2023-02-09T02:30:40.005Z,67.50
2023-02-09T02:33:35.642Z,67.60
2023-02-09T02:36:18.175Z,67.70
2023-02-09T02:38:55.012Z,67.70
2023-02-09T02:41:56.764Z,67.80
2023-02-09T02:44:31.428Z,67.80
2023-02-09T02:47:05.303Z,67.70
2023-02-09T02:49:43.580Z,67.60
2023-02-09T02:52:15.648Z,67.60
2023-02-09T02:54:49.556Z,67.70
2023-02-09T02:57:27.801Z,68.00
2023-02-09T03:00:06.386Z,68.20
2023-02-09T03:02:42.569Z,68.30
2023-02-09T03:05:22.079Z,68.40
2023-02-09T03:07:52.786Z,68.50
2023-02-09T03:10:28.787Z,68.40
2023-02-09T03:13:08.413Z,68.40
2023-02-09T03:15:49.969Z,68.30
2023-02-09T03:18:28.868Z,68.40
2023-02-09T03:21:07.356Z,68.50
2023-02-09T03:23:43.511Z,68.70
2023-02-09T03:26:15.984Z,68.80
2023-02-09T03:28:47.514Z,68.90
2023-02-09T03:31:17.850Z,69.00
2023-02-09T03:33:48.310Z,69.00
2023-02-09T03:36:21.634Z,69.00
2023-02-09T03:38:52.164Z,68.90
2023-02-09T03:41:23.712Z,68.90
2023-02-09T03:44:09.368Z,68.80
2023-02-09T03:46:42.125Z,68.80
2023-02-09T03:49:15.023Z,68.80
2023-02-09T03:51:48.575Z,68.80
2023-02-09T03:54:17.612Z,68.60
2023-02-09T03:56:45.799Z,68.60
2023-02-09T03:59:14.092Z,68.70
2023-02-09T04:01:42.625Z,68.80
2023-02-09T04:04:11.471Z,68.80
2023-02-09T04:06:40.399Z,68.90
2023-02-09T04:09:13.263Z,69.10
2023-02-09T04:11:44.549Z,69.10
2023-02-09T04:14:12.689Z,69.20
2023-02-09T04:16:43.522Z,69.10
2023-02-09T04:19:12.668Z,69.20
2023-02-09T04:21:41.431Z,69.40
2023-02-09T04:24:13.162Z,69.50
2023-02-09T04:26:41.470Z,69.50
2023-02-09T04:29:10.544Z,69.40
2023-02-09T04:31:39.036Z,69.20
2023-02-09T04:34:08.823Z,69.10
2023-02-09T04:36:54.980Z,69.10
2023-02-09T04:39:25.173Z,69.20
2023-02-09T04:41:57.867Z,69.10
2023-02-09T04:44:40.684Z,69.10
2023-02-09T04:47:10.488Z,69.20
2023-02-09T04:50:02.241Z,69.20
2023-02-09T04:52:32.801Z,69.30
2023-02-09T04:55:10.462Z,69.30
2023-02-09T04:57:57.264Z,69.20
2023-02-09T05:00:26.014Z,69.20
2023-02-09T05:02:56.734Z,69.30
2023-02-09T05:05:26.112Z,69.50
2023-02-09T05:07:56.947Z,69.40
2023-02-09T05:10:29.488Z,69.60
2023-02-09T05:12:57.875Z,69.70
2023-02-09T05:15:26.542Z,69.60
2023-02-09T05:17:57.662Z,69.80
2023-02-09T05:20:26.691Z,69.80
2023-02-09T05:23:01.098Z,70.00
2023-02-09T05:25:31.723Z,70.10
2023-02-09T05:28:04.624Z,70.20
2023-02-09T05:30:36.088Z,70.40
2023-02-09T05:33:06.551Z,70.40
2023-02-09T05:35:36.215Z,70.50
2023-02-09T05:38:05.322Z,70.60
2023-02-09T05:40:35.308Z,70.50
2023-02-09T05:43:13.912Z,70.40
2023-02-09T05:45:42.533Z,70.10
2023-02-09T05:48:12.242Z,70.20
2023-02-09T05:50:44.142Z,70.30
2023-02-09T05:53:15.239Z,70.20
2023-02-09T05:58:41.834Z,70.10
2023-02-09T06:01:14.416Z,70.10
2023-02-09T06:03:43.725Z,70.20
2023-02-09T06:06:13.777Z,70.10
2023-02-09T06:08:47.858Z,70.10
2023-02-09T06:11:26.523Z,69.90
2023-02-09T06:13:57.622Z,69.90
2023-02-09T06:16:41.370Z,69.80
2023-02-09T06:19:15.120Z,69.50
2023-02-09T06:21:47.454Z,69.40
2023-02-09T06:24:17.459Z,69.50
2023-02-09T06:26:48.570Z,69.60
2023-02-09T06:29:32.197Z,69.60
2023-02-09T06:32:14.233Z,69.60
2023-02-09T06:34:42.813Z,69.70
2023-02-09T06:37:13.786Z,69.70
2023-02-09T06:39:45.203Z,69.50
2023-02-09T06:42:15.174Z,69.40
2023-02-09T06:44:44.751Z,69.40
2023-02-09T06:47:13.141Z,69.50
2023-02-09T06:49:41.771Z,69.30
2023-02-09T06:52:12.698Z,69.20
2023-02-09T06:54:45.124Z,69.40
2023-02-09T06:57:15.852Z,69.50
2023-02-09T06:59:47.123Z,69.60
2023-02-09T07:02:15.475Z,69.60
2023-02-09T07:04:43.801Z,69.60
2023-02-09T07:07:11.918Z,69.60
2023-02-09T07:09:39.925Z,69.60
2023-02-09T07:12:09.628Z,69.60
2023-02-09T07:14:42.273Z,69.50
2023-02-09T07:17:10.531Z,69.40
2023-02-09T07:19:38.703Z,69.40
2023-02-09T07:22:07.135Z,69.40
2023-02-09T07:24:35.571Z,69.40
2023-02-09T07:27:06.690Z,69.40
2023-02-09T07:29:36.173Z,69.30
2023-02-09T07:32:08.557Z,69.20
2023-02-09T07:34:38.970Z,69.30
2023-02-09T07:37:07.643Z,69.50
2023-02-09T07:39:36.342Z,69.40
2023-02-09T07:42:05.328Z,69.50
2023-02-09T07:44:50.785Z,69.70
2023-02-09T07:47:20.652Z,69.70
2023-02-09T07:49:51.301Z,69.90
2023-02-09T07:52:23.113Z,69.90
2023-02-09T07:54:52.341Z,69.70
2023-02-09T07:57:20.911Z,69.70
2023-02-09T07:59:51.895Z,69.80
2023-02-09T08:02:33.262Z,69.90
2023-02-09T08:05:07.391Z,69.80
2023-02-09T08:07:39.195Z,69.80
2023-02-09T08:10:12.568Z,69.90
2023-02-09T08:12:59.941Z,70.00
2023-02-09T08:16:07.290Z,70.10
2023-02-09T08:18:43.246Z,70.10
2023-02-09T08:21:19.507Z,70.30
2023-02-09T08:23:55.062Z,70.30
2023-02-09T08:26:23.792Z,70.50
2023-02-09T08:28:57.300Z,70.50
2023-02-09T08:31:26.682Z,70.60
2023-02-09T08:33:58.255Z,70.80
2023-02-09T08:36:26.858Z,70.90
2023-02-09T08:38:55.526Z,70.90
2023-02-09T08:41:25.149Z,70.80
2023-02-09T08:43:54.613Z,70.80
2023-02-09T08:46:25.919Z,70.80
2023-02-09T08:48:59.732Z,70.80
2023-02-09T08:51:28.439Z,70.80
2023-02-09T08:53:57.111Z,70.80
2023-02-09T08:56:25.616Z,70.80
2023-02-09T08:58:54.289Z,70.80
2023-02-09T09:01:23.411Z,70.80
2023-02-09T09:03:56.781Z,70.70
2023-02-09T09:06:29.032Z,70.80
2023-02-09T09:09:03.280Z,70.90
2023-02-09T09:11:32.481Z,70.80
2023-02-09T09:14:01.908Z,70.90
2023-02-09T09:16:30.488Z,70.90
2023-02-09T09:19:01.966Z,70.90
2023-02-09T09:21:31.461Z,70.90
2023-02-09T09:24:05.246Z,70.90
2023-02-09T09:26:40.925Z,70.90
2023-02-09T09:29:11.190Z,70.90
2023-02-09T09:31:40.357Z,70.90
2023-02-09T09:34:11.542Z,70.90
2023-02-09T09:36:41.079Z,70.90
2023-02-09T09:39:09.688Z,70.80
2023-02-09T09:41:39.963Z,70.80
2023-02-09T09:44:16.784Z,70.80
2023-02-09T09:46:47.385Z,70.80
2023-02-09T09:49:26.784Z,70.80
2023-02-09T09:52:02.216Z,70.80
2023-02-09T09:54:35.752Z,70.80
2023-02-09T09:57:05.333Z,70.80
2023-02-09T09:59:39.405Z,70.80
2023-02-09T10:02:20.878Z,70.60
2023-02-09T10:05:16.816Z,70.60
2023-02-09T10:07:57.451Z,70.70
2023-02-09T10:10:41.069Z,70.60
2023-02-09T10:13:22.791Z,70.60
2023-02-09T10:15:57.643Z,70.60
2023-02-09T10:18:51.847Z,70.60
2023-02-09T10:24:44.740Z,70.60
2023-02-09T10:27:34.583Z,70.60
2023-02-09T10:30:27.027Z,70.60
2023-02-09T10:33:19.574Z,70.50
2023-02-09T10:36:10.665Z,70.60
2023-02-09T10:39:29.560Z,70.50
2023-02-09T10:42:22.309Z,70.50
2023-02-09T12:26:00.188Z,70.10
2023-02-09T12:28:55.502Z,70.10
2023-02-09T12:31:33.378Z,70.10
2023-02-09T12:34:55.199Z,70.10
2023-02-09T12:37:31.016Z,70.20
2023-02-09T12:43:30.566Z,70.20
2023-02-09T13:05:39.748Z,70.30
2023-02-09T13:12:53.101Z,70.10
2023-02-09T13:55:24.121Z,69.60
2023-02-09T13:58:19.776Z,69.60
2023-02-09T14:01:26.308Z,69.50
2023-02-09T14:07:22.764Z,69.40
2023-02-09T14:10:18.070Z,69.30
2023-02-09T14:13:02.012Z,69.30
2023-02-09T14:16:08.246Z,69.20
2023-02-09T14:18:59.886Z,69.30
2023-02-09T15:05:19.413Z,68.60
2023-02-09T15:07:55.429Z,68.50
2023-02-09T16:50:34.478Z,68.30
2023-02-09T16:53:19.126Z,68.50
2023-02-09T16:55:52.655Z,68.60
2023-02-09T16:58:37.984Z,68.70
2023-02-09T17:01:19.521Z,68.70
2023-02-09T17:04:18.515Z,68.70
2023-02-09T17:10:40.146Z,68.60
2023-02-09T17:13:31.385Z,68.60
2023-02-09T17:16:09.175Z,68.60
2023-02-09T17:18:42.584Z,68.60
2023-02-09T17:21:17.535Z,68.50
2023-02-09T17:23:47.318Z,68.50
2023-02-09T17:26:18.466Z,68.40
2023-02-09T17:28:49.352Z,68.30
2023-02-09T17:31:23.010Z,68.30
2023-02-09T17:33:57.393Z,68.60
2023-02-09T17:39:33.274Z,68.80
2023-02-09T17:42:07.093Z,68.90
2023-02-09T17:44:48.984Z,68.80
2023-02-09T17:47:28.626Z,68.80
2023-02-09T17:50:04.873Z,68.80
2023-02-09T18:24:24.088Z,68.70
2023-02-09T18:27:00.722Z,68.90
2023-02-09T18:29:30.756Z,69.00
2023-02-09T18:32:02.384Z,69.00
2023-02-09T18:34:31.357Z,69.10
2023-02-09T18:37:02.148Z,69.10
2023-02-09T18:39:33.265Z,69.10
2023-02-09T18:42:05.791Z,69.10
2023-02-09T18:44:34.427Z,69.10
2023-02-09T18:47:05.829Z,69.20
2023-02-09T18:49:37.374Z,69.30
2023-02-09T18:52:06.220Z,69.30
2023-02-09T18:54:42.413Z,69.30
2023-02-09T18:57:10.714Z,69.30
2023-02-09T18:59:40.360Z,69.30
2023-02-09T19:02:10.437Z,69.20
2023-02-09T19:04:38.678Z,69.10
2023-02-09T19:07:12.449Z,69.20
2023-02-09T19:09:45.985Z,69.20
2023-02-09T19:12:16.798Z,69.10
2023-02-09T19:14:47.251Z,69.00
2023-02-09T19:17:21.230Z,69.10
2023-02-09T19:19:50.313Z,68.90
2023-02-09T19:22:20.324Z,68.90
2023-02-09T19:24:51.866Z,69.00
2023-02-09T19:27:21.616Z,69.10
2023-02-09T19:29:53.337Z,69.30
2023-02-09T19:32:26.043Z,69.40
2023-02-09T19:34:58.445Z,69.40
2023-02-09T19:37:27.598Z,69.30
2023-02-09T19:40:04.771Z,69.30
2023-02-09T19:42:35.329Z,69.40
2023-02-09T19:45:03.693Z,69.50
2023-02-09T19:47:32.198Z,69.60
2023-02-09T19:50:00.570Z,69.50
2023-02-09T19:52:30.275Z,69.50
2023-02-09T19:55:02.725Z,69.50
2023-02-09T19:57:31.842Z,69.50
2023-02-09T20:00:00.830Z,69.50
2023-02-09T20:02:29.182Z,69.40
2023-02-09T20:04:57.546Z,69.50
2023-02-09T20:07:25.872Z,69.40
2023-02-09T20:09:58.134Z,69.50
2023-02-09T20:12:30.944Z,69.60
2023-02-09T20:15:04.817Z,69.60
2023-02-09T20:17:34.385Z,69.50
2023-02-09T20:20:06.365Z,69.50
2023-02-09T20:22:39.466Z,69.80
2023-02-09T20:25:17.896Z,69.80
2023-02-09T20:27:53.146Z,69.80
2023-02-09T20:30:27.161Z,69.60
2023-02-09T20:32:58.317Z,69.60
2023-02-09T20:35:27.222Z,69.80
2023-02-09T20:37:57.494Z,69.80
2023-02-09T20:40:27.352Z,69.80
2023-02-09T20:43:14.840Z,69.80
2023-02-09T20:46:02.123Z,69.80
2023-02-09T20:48:31.575Z,69.90
2023-02-09T20:51:00.707Z,69.90
2023-02-09T20:53:29.008Z,69.90
2023-02-09T20:55:58.744Z,70.00
2023-02-09T20:58:28.949Z,70.00
2023-02-09T21:00:57.600Z,70.00
2023-02-09T21:03:30.003Z,70.00
2023-02-09T21:05:59.350Z,70.00
2023-02-09T21:08:27.917Z,69.90
2023-02-09T21:10:57.302Z,69.80
2023-02-09T21:13:27.532Z,69.90
2023-02-09T21:15:58.815Z,70.00
2023-02-09T21:18:32.489Z,70.10
2023-02-09T21:21:05.162Z,70.10
2023-02-09T21:23:33.864Z,70.10
2023-02-09T21:26:06.323Z,70.10
2023-02-09T21:28:39.739Z,70.10
2023-02-09T21:31:13.445Z,70.20
2023-02-09T21:33:48.200Z,70.20
2023-02-09T21:36:17.076Z,70.20
2023-02-09T21:38:49.912Z,70.20
2023-02-09T21:41:43.229Z,70.10
2023-02-09T21:44:15.283Z,70.10
2023-02-09T21:46:44.140Z,70.20
2023-02-09T21:49:15.930Z,70.20
2023-02-09T21:51:44.757Z,70.20
2023-02-09T21:54:15.531Z,70.40
2023-02-09T21:56:44.855Z,70.50
2023-02-09T21:59:16.726Z,70.50
2023-02-09T22:01:46.449Z,70.50
2023-02-09T22:04:14.938Z,70.30
2023-02-09T22:06:51.920Z,70.20
2023-02-09T22:09:26.187Z,70.20
2023-02-09T22:11:59.339Z,70.30
2023-02-09T22:14:36.879Z,70.30
2023-02-09T22:17:24.305Z,70.40
2023-02-09T22:19:59.557Z,70.50
2023-02-09T22:22:28.836Z,70.40
2023-02-09T22:25:03.662Z,70.50
2023-02-09T22:27:34.417Z,70.60
2023-02-09T22:30:07.353Z,70.70
2023-02-09T22:32:38.912Z,70.70
2023-02-09T22:35:13.439Z,70.90
2023-02-09T22:37:45.435Z,70.70
2023-02-09T22:40:17.053Z,70.60
2023-02-09T22:42:46.893Z,70.50
2023-02-09T22:45:16.947Z,70.50
2023-02-09T22:47:45.478Z,70.60
2023-02-09T22:50:15.996Z,70.60
2023-02-09T22:52:47.469Z,70.70
2023-02-09T22:55:16.179Z,70.90
2023-02-09T22:57:44.929Z,70.90
2023-02-09T23:00:17.140Z,70.90
2023-02-09T23:02:47.304Z,70.80
2023-02-09T23:05:15.846Z,70.80
2023-02-09T23:07:47.198Z,70.90
2023-02-09T23:10:15.572Z,71.00
2023-02-09T23:12:44.626Z,71.20
2023-02-09T23:15:14.310Z,71.20
2023-02-09T23:17:44.630Z,71.20
2023-02-09T23:20:13.194Z,71.20
2023-02-09T23:22:41.573Z,71.00
2023-02-09T23:25:10.400Z,70.90
2023-02-09T23:27:48.910Z,70.80
2023-02-09T23:30:24.512Z,70.80
2023-02-09T23:32:56.972Z,70.90
2023-02-09T23:35:30.353Z,70.90
2023-02-09T23:37:59.769Z,70.80
2023-02-09T23:40:30.773Z,70.80
2023-02-09T23:42:59.668Z,70.90
2023-02-09T23:45:30.425Z,71.20
2023-02-09T23:48:00.384Z,71.40
2023-02-09T23:50:29.108Z,71.40
2023-02-09T23:52:59.657Z,71.50
2023-02-09T23:55:37.375Z,71.60
2023-02-09T23:58:05.814Z,71.50
